Time;durP1;ratioP1;P1;durP2;ratioP2;P2;SDS_P1;SDS_P2;PMS_P1;PMS_P2;Temp;Humidity;BMP_temperature;BMP_pressure;BME280_temperature;BME280_humidity;BME280_pressure;Samples;Min_cycle;Max_cycle;Signal;HPM_P1;HPM_P2
2022/01/23 00:00:18;;;;;;;10.47;5.97;;;4.00;99.90;;;4.24;70.71;99238.22;5087210;28;20056;-40
2022/01/23 00:02:50;;;;;;;10.33;6.70;;;4.00;99.90;;;4.23;70.66;99244.44;5072064;28;20048;-41
2022/01/23 00:05:21;;;;;;;8.83;5.77;;;4.00;99.90;;;4.27;70.90;99253.03;5087328;28;20058;-40
2022/01/23 00:07:51;;;;;;;12.30;6.60;;;4.00;99.90;;;4.22;70.99;99245.34;5087772;28;20050;-40
2022/01/23 00:10:19;;;;;;;11.87;6.67;;;4.00;99.90;;;4.21;70.84;99243.66;5087741;28;20477;-40
2022/01/23 00:12:53;;;;;;;12.23;6.83;;;3.90;99.90;;;4.18;70.24;99240.34;5087369;28;20054;-40
2022/01/23 00:18:07;;;;;;;12.80;7.60;;;3.90;99.90;;;4.17;70.19;99243.88;5086942;28;20051;-40
2022/01/23 00:20:35;;;;;;;12.07;8.17;;;3.90;99.90;;;4.14;71.02;99237.84;5087513;28;20593;-40
2022/01/23 00:23:12;;;;;;;11.77;7.67;;;3.90;99.90;;;4.16;71.24;99236.94;5086049;28;20048;-40
2022/01/23 00:31:15;;;;;;;10.97;7.60;;;3.80;99.90;;;4.05;70.90;99242.75;5070624;28;20494;-40
2022/01/23 00:33:43;;;;;;;11.67;6.67;;;3.70;99.90;;;4.06;71.31;99233.94;5108090;28;20055;-40
2022/01/23 00:36:13;;;;;;;12.20;7.90;;;3.70;99.90;;;3.98;71.48;99231.69;5107216;28;20375;-41
2022/01/23 00:38:40;;;;;;;11.40;7.23;;;3.70;99.90;;;3.96;71.10;99241.47;5087930;28;20051;-40
2022/01/23 00:41:08;;;;;;;11.93;7.37;;;3.60;99.90;;;3.97;71.27;99237.88;5108311;28;20070;-40
2022/01/23 00:43:40;;;;;;;11.33;8.13;;;3.60;99.90;;;3.97;71.29;99244.97;5105976;28;20065;-40
2022/01/23 00:48:49;;;;;;;13.30;8.10;;;3.70;99.90;;;4.04;70.94;99241.91;5107665;28;20482;-40
2022/01/23 00:51:18;;;;;;;13.07;7.93;;;3.70;99.90;;;4.03;71.38;99237.59;5107000;28;20059;-40
2022/01/23 00:53:46;;;;;;;13.63;8.10;;;3.70;99.90;;;4.06;71.49;99233.94;5088504;28;20139;-40
2022/01/23 00:56:14;;;;;;;16.93;8.40;;;3.70;99.90;;;4.11;70.90;99235.41;5087862;28;20054;-40
2022/01/23 00:58:41;;;;;;;13.83;8.40;;;3.80;99.90;;;4.12;71.30;99239.72;5107473;28;20060;-40
2022/01/23 01:01:14;;;;;;;16.50;9.17;;;3.80;99.90;;;4.13;71.83;99238.81;5108343;28;20059;-40
2022/01/23 01:03:42;;;;;;;14.37;9.07;;;3.80;99.90;;;4.10;71.32;99240.75;5105821;28;20058;-40
2022/01/23 01:06:11;;;;;;;15.23;9.60;;;3.70;99.90;;;4.10;71.35;99235.47;5106914;28;20061;-40
2022/01/23 01:08:41;;;;;;;16.67;9.83;;;3.80;99.90;;;4.11;71.06;99239.78;5087338;28;20062;-41
2022/01/23 01:14:29;;;;;;;21.70;11.40;;;3.80;99.90;;;4.01;71.39;99234.16;5044240;28;20389;-40
2022/01/23 01:31:03;;;;;;;19.73;11.50;;;3.50;99.90;;;3.81;71.65;99229.09;5107741;28;20098;-37
2022/01/23 01:33:43;;;;;;;22.30;12.57;;;3.50;99.90;;;3.81;71.75;99221.19;5087663;28;20227;-37
2022/01/23 01:38:50;;;;;;;19.73;10.30;;;3.50;99.90;;;3.84;72.55;99240.34;5089660;28;20055;-37
2022/01/23 01:41:21;;;;;;;19.40;11.43;;;3.50;99.90;;;3.85;71.78;99236.75;5104853;28;20063;-37
2022/01/23 01:43:52;;;;;;;21.83;12.40;;;3.50;99.90;;;3.86;71.97;99233.19;5088316;28;20379;-37
2022/01/23 01:46:34;;;;;;;19.57;12.67;;;3.50;99.90;;;3.85;72.62;99242.03;5088975;28;20249;-37
2022/01/23 01:49:05;;;;;;;17.73;10.27;;;3.50;99.90;;;3.84;72.25;99253.50;5071090;28;20066;-37
2022/01/23 01:51:34;;;;;;;20.40;12.03;;;3.50;99.90;;;3.87;72.32;99247.22;5105546;28;20058;-37
2022/01/23 01:54:22;;;;;;;18.87;12.03;;;3.60;99.90;;;3.82;72.43;99252.75;5107995;28;20337;-37
2022/01/23 01:57:02;;;;;;;20.37;12.03;;;3.50;99.90;;;3.79;72.75;99249.41;5110489;28;20043;-37
2022/01/23 01:59:46;;;;;;;18.77;11.90;;;3.50;99.90;;;3.81;72.71;99245.75;5092595;28;20062;-37
2022/01/23 02:08:29;;;;;;;20.03;9.60;;;3.50;99.90;;;3.77;72.68;99240.72;5092912;28;20066;-37
2022/01/23 02:11:09;;;;;;;17.80;10.93;;;3.50;99.90;;;3.79;72.67;99234.44;5092840;28;20067;-37
2022/01/23 02:13:45;;;;;;;20.97;11.27;;;3.50;99.90;;;3.78;72.28;99229.25;5072799;28;20073;-37
2022/01/23 02:55:47;;;;;;;21.63;13.73;;;3.50;99.90;;;3.75;72.60;99190.75;5091241;28;20342;-40
2022/01/23 02:58:21;;;;;;;20.57;12.73;;;3.50;99.90;;;3.77;72.93;99180.16;5092949;28;20055;-41
2022/01/23 03:01:07;;;;;;;19.10;11.47;;;3.40;99.90;;;3.69;73.07;99178.75;5091344;28;20063;-40
2022/01/23 03:04:03;;;;;;;19.27;12.20;;;3.40;99.90;;;3.68;72.37;99179.69;5089959;28;20068;-40
2022/01/23 03:30:29;;;;;;;22.27;12.10;;;3.30;99.90;;;3.77;72.95;99231.03;5069210;28;20058;-40
2022/01/23 03:32:56;;;;;;;21.47;12.60;;;3.50;99.90;;;3.78;72.55;99240.66;5070283;28;20059;-40
2022/01/23 03:35:24;;;;;;;18.73;11.37;;;3.50;99.90;;;3.73;72.87;99232.97;5069370;28;20050;-41
2022/01/23 03:37:52;;;;;;;22.57;11.60;;;3.50;99.90;;;3.78;72.94;99229.25;5088132;28;20365;-41
2022/01/23 03:40:20;;;;;;;22.13;12.20;;;3.50;99.90;;;3.78;72.70;99226.63;5087991;28;20044;-40
2022/01/23 03:43:07;;;;;;;21.27;11.50;;;3.50;99.90;;;3.81;72.88;99232.56;5087973;28;20050;-40
2022/01/23 03:50:45;;;;;;;24.33;12.93;;;3.60;99.90;;;3.89;73.12;99222.47;5070224;28;20084;-41
2022/01/23 03:53:20;;;;;;;21.93;13.57;;;3.60;99.90;;;3.88;72.88;99233.13;5068608;28;20056;-41
2022/01/23 03:55:50;;;;;;;21.47;12.27;;;3.60;99.90;;;3.87;73.03;99226.97;5070357;28;20062;-40
2022/01/23 03:58:18;;;;;;;24.93;13.57;;;3.60;99.90;;;3.80;72.57;99233.53;5069924;28;20051;-41
2022/01/23 04:00:46;;;;;;;23.70;13.70;;;3.50;99.90;;;3.76;73.00;99234.59;5070414;28;20051;-41
2022/01/23 04:03:18;;;;;;;21.13;13.70;;;3.40;99.90;;;3.79;72.62;99237.06;5068792;28;20062;-41
2022/01/23 04:05:47;;;;;;;24.50;13.83;;;3.40;99.90;;;3.80;72.70;99244.06;5069637;28;20241;-41
2022/01/23 04:08:16;;;;;;;24.43;14.43;;;3.50;99.90;;;3.83;73.06;99237.78;5069577;28;20066;-41
2022/01/23 04:10:45;;;;;;;29.73;15.23;;;3.50;99.90;;;3.88;72.82;99233.13;5069673;28;20052;-40
2022/01/23 04:15:48;;;;;;;28.17;14.27;;;3.60;99.90;;;3.91;72.68;99231.16;5070381;28;20392;-40
2022/01/23 04:31:45;;;;;;;25.53;14.80;;;3.60;99.90;;;3.86;73.06;99227.09;5071822;28;20050;-40
2022/01/23 04:45:53;;;;;;;22.43;13.10;;;3.60;99.90;;;3.89;72.53;99217.22;5068096;28;20056;-40
2022/01/23 04:59:39;;;;;;;24.27;13.13;;;3.70;99.90;;;3.89;72.49;99222.47;5068916;28;20056;-40
2022/01/23 05:05:30;;;;;;;21.88;12.73;;;3.60;99.90;;;3.81;73.08;99218.56;5086528;28;20060;-40
2022/01/23 05:08:06;;;;;;;22.03;12.83;;;3.50;99.90;;;3.86;72.51;99219.19;5068321;28;20389;-40
2022/01/23 05:11:03;;;;;;;23.37;12.23;;;3.60;99.90;;;3.92;72.13;99227.59;5060635;28;20060;-40
2022/01/23 05:13:48;;;;;;;23.70;13.67;;;3.70;99.90;;;3.89;72.89;99221.63;5066156;28;20062;-40
2022/01/23 05:16:18;;;;;;;24.40;13.87;;;3.60;99.90;;;3.82;72.50;99222.88;5051190;28;20378;-40
2022/01/23 05:18:46;;;;;;;22.80;12.07;;;3.50;99.90;;;3.80;72.61;99237.91;5053066;28;20082;-40
2022/01/23 05:23:45;;;;;;;24.47;13.20;;;3.50;99.90;;;3.83;72.60;99233.34;5086055;28;20040;-40
2022/01/23 05:26:13;;;;;;;26.27;13.43;;;3.50;99.90;;;3.78;72.85;99235.41;5085720;28;20043;-40
2022/01/23 05:28:41;;;;;;;26.93;13.33;;;3.50;99.90;;;3.78;72.31;99237.16;5085719;28;20056;-40
2022/01/23 05:31:09;;;;;;;22.33;13.07;;;3.50;99.90;;;3.79;73.17;99244.13;5072639;28;20060;-40
2022/01/23 05:33:38;;;;;;;22.07;13.23;;;3.50;99.90;;;3.83;72.61;99245.69;5091359;28;20522;-40
2022/01/23 05:36:06;;;;;;;22.17;11.77;;;3.60;99.90;;;3.80;72.73;99253.72;5073526;28;20050;-41
2022/01/23 05:38:35;;;;;;;21.33;12.60;;;3.50;99.90;;;3.79;72.75;99242.34;5091077;28;20048;-40
2022/01/23 05:41:03;;;;;;;19.33;11.87;;;3.50;99.90;;;3.79;72.90;99246.78;5071703;28;20058;-40
2022/01/23 05:43:31;;;;;;;24.07;12.20;;;3.50;99.90;;;3.73;73.16;99240.03;5073246;28;20361;-40
2022/01/23 05:45:59;;;;;;;21.70;12.03;;;3.50;99.90;;;3.75;72.44;99238.16;5089546;28;20070;-40
2022/01/23 05:48:47;;;;;;;23.57;12.43;;;3.40;99.90;;;3.76;72.96;99242.50;5076618;28;20063;-40
2022/01/23 05:51:34;;;;;;;20.37;11.80;;;3.50;99.90;;;3.76;72.58;99229.31;5095860;28;20050;-40
2022/01/23 05:54:20;;;;;;;23.23;12.80;;;3.50;99.90;;;3.77;72.95;99232.84;5093054;28;20270;-40
2022/01/23 05:57:05;;;;;;;21.20;11.50;;;3.50;99.90;;;3.78;72.83;99234.53;5073237;28;20056;-40
2022/01/23 05:59:45;;;;;;;24.53;12.07;;;3.50;99.90;;;3.72;73.19;99239.19;5071088;28;20256;-40
2022/01/23 06:02:13;;;;;;;20.43;11.70;;;3.50;99.90;;;3.73;72.97;99246.16;5071601;28;20056;-40
2022/01/23 06:04:41;;;;;;;20.63;12.40;;;3.50;99.90;;;3.70;72.80;99250.72;5071805;28;20055;-40
2022/01/23 06:07:21;;;;;;;20.57;12.30;;;3.40;99.90;;;3.70;73.14;99264.75;5090058;28;20058;-40
2022/01/23 06:10:05;;;;;;;21.73;12.53;;;3.40;99.90;;;3.75;73.00;99259.25;5072424;28;20062;-40
2022/01/23 06:12:33;;;;;;;23.13;12.50;;;3.50;99.90;;;3.82;73.49;99262.41;5072053;28;20062;-40
2022/01/23 06:15:01;;;;;;;24.30;13.00;;;3.60;99.90;;;3.87;72.50;99263.88;5090579;28;20052;-40
2022/01/23 06:17:29;;;;;;;24.53;12.33;;;3.70;99.90;;;3.92;72.44;99268.91;5071583;28;20048;-40
2022/01/23 06:20:16;;;;;;;21.00;12.63;;;3.70;99.90;;;3.96;72.26;99280.16;5075555;28;20062;-39
2022/01/23 06:23:02;;;;;;;22.37;12.77;;;3.70;99.90;;;3.91;72.88;99272.47;5094130;28;20058;-40
2022/01/23 06:25:49;;;;;;;20.83;11.30;;;3.60;99.90;;;3.91;72.80;99269.84;5091502;28;20050;-40
2022/01/23 06:28:40;;;;;;;26.57;13.03;;;3.60;99.90;;;3.93;72.43;99263.56;5072460;28;20060;-41
2022/01/23 06:31:09;;;;;;;23.57;13.20;;;3.60;99.90;;;3.94;72.84;99269.69;5090366;28;20048;-40
2022/01/23 06:33:37;;;;;;;20.90;11.77;;;3.60;99.90;;;3.96;72.95;99267.84;5053805;28;20056;-40
2022/01/23 06:36:08;;;;;;;21.57;11.87;;;3.70;99.90;;;3.96;72.93;99266.97;5072427;28;20056;-40
2022/01/23 06:38:36;;;;;;;21.03;11.70;;;3.70;99.90;;;3.99;72.82;99272.91;5071169;28;20048;-40
2022/01/23 06:41:05;;;;;;;23.27;12.50;;;3.70;99.90;;;4.01;73.10;99267.56;5072112;28;20063;-40
2022/01/23 06:43:47;;;;;;;22.57;12.77;;;3.80;99.90;;;4.06;72.36;99273.47;5093093;28;20046;-40
2022/01/23 06:46:24;;;;;;;20.27;11.63;;;3.80;99.90;;;4.07;72.56;99281.31;5070844;28;20071;-40
2022/01/23 06:48:52;;;;;;;22.17;12.17;;;3.80;99.90;;;4.05;72.59;99288.44;5071578;28;20078;-40
2022/01/23 06:51:20;;;;;;;24.20;13.40;;;3.70;99.90;;;4.02;72.55;99279.84;5070969;28;20074;-40
2022/01/23 06:53:48;;;;;;;20.90;12.67;;;3.70;99.90;;;4.01;72.13;99280.75;5071187;28;20049;-40
2022/01/23 06:56:17;;;;;;;24.87;14.77;;;3.70;99.90;;;4.03;72.63;99289.44;5054724;28;20234;-40
2022/01/23 06:58:46;;;;;;;26.13;14.57;;;3.70;99.90;;;4.01;72.77;99288.66;5070947;28;20114;-40
2022/01/23 07:01:15;;;;;;;28.90;14.57;;;3.70;99.90;;;4.03;72.75;99290.31;5088645;28;20048;-40
2022/01/23 07:03:48;;;;;;;21.43;12.73;;;3.70;99.90;;;4.06;72.53;99290.13;5071461;28;20056;-40
2022/01/23 07:06:46;;;;;;;22.57;13.23;;;3.80;99.90;;;4.03;73.08;99295.56;5067902;28;20048;-40
2022/01/23 07:09:39;;;;;;;23.23;13.50;;;3.70;99.90;;;4.06;72.11;99297.19;5084152;28;20232;-40
2022/01/23 07:12:22;;;;;;;24.80;12.80;;;3.70;99.90;;;4.10;72.44;99298.72;5071232;28;20258;-40
2022/01/23 07:15:28;;;;;;;23.03;13.17;;;3.80;99.90;;;4.16;72.48;99316.84;5007461;28;20062;-40
2022/01/23 07:18:16;;;;;;;23.27;14.20;;;3.90;99.90;;;4.21;72.75;99316.63;4989390;28;20068;-40
2022/01/23 07:21:01;;;;;;;22.83;14.23;;;4.00;99.90;;;4.23;72.70;99310.34;5054539;28;20736;-40
2022/01/23 07:23:33;;;;;;;22.03;13.40;;;4.00;99.90;;;4.24;71.97;99317.31;5071135;28;20052;-38
2022/01/23 07:26:00;;;;;;;26.10;14.37;;;4.00;99.90;;;4.24;72.19;99314.66;5069620;28;20343;-38
2022/01/23 07:28:38;;;;;;;22.37;14.23;;;4.00;99.90;;;4.25;72.19;99319.03;5070187;28;20059;-37
2022/01/23 07:31:09;;;;;;;24.17;13.97;;;4.00;99.90;;;4.25;71.93;99320.81;5070924;28;20079;-38
2022/01/23 07:33:38;;;;;;;24.63;14.10;;;4.00;99.90;;;4.24;72.36;99316.47;5069690;28;20054;-38
2022/01/23 07:36:07;;;;;;;28.00;14.43;;;3.90;99.90;;;4.23;72.03;99322.69;5070651;28;20066;-38
2022/01/23 07:38:35;;;;;;;21.90;12.40;;;3.90;99.90;;;4.22;72.55;99324.44;5070266;28;20047;-37
2022/01/23 07:41:19;;;;;;;21.52;13.10;;;3.80;99.90;;;4.24;72.40;99321.72;5071352;28;20050;-37
2022/01/23 07:43:52;;;;;;;25.10;14.00;;;3.90;99.90;;;4.24;72.63;99330.47;5069328;28;20066;-37
2022/01/23 07:46:39;;;;;;;27.37;19.30;;;3.90;99.90;;;4.26;72.81;99325.13;5075376;28;20241;-38
2022/01/23 07:49:29;;;;;;;26.93;15.57;;;3.90;99.90;;;4.27;72.25;99332.13;5069105;28;20051;-38
2022/01/23 07:52:16;;;;;;;24.13;13.97;;;3.90;99.90;;;4.28;72.32;99345.22;5089661;28;20369;-38
2022/01/23 07:55:10;;;;;;;26.00;14.20;;;4.00;99.90;;;4.29;72.67;99343.44;5086508;28;20180;-38
2022/01/23 07:58:02;;;;;;;24.00;13.77;;;4.00;99.90;;;4.28;72.40;99345.22;5068393;28;20341;-37
2022/01/23 08:00:42;;;;;;;23.77;13.10;;;4.00;99.90;;;4.29;71.99;99338.19;5067724;28;20052;-38
2022/01/23 08:03:13;;;;;;;23.07;13.70;;;4.00;99.90;;;4.32;72.29;99351.19;5086627;28;20056;-38
2022/01/23 08:06:12;;;;;;;22.47;13.87;;;4.00;99.90;;;4.33;72.82;99343.19;5067350;28;20056;-37
2022/01/23 08:08:40;;;;;;;25.50;14.30;;;4.10;99.90;;;4.36;72.14;99355.34;5086720;28;20242;-38
2022/01/23 08:11:12;;;;;;;24.97;14.47;;;4.10;99.90;;;4.36;71.93;99350.09;5068833;28;20368;-37
2022/01/23 08:13:40;;;;;;;27.47;15.20;;;4.10;99.90;;;4.39;71.92;99349.09;5086106;28;20055;-37
2022/01/23 08:16:10;;;;;;;26.00;14.83;;;4.10;99.90;;;4.42;72.67;99364.72;5085882;28;20055;-38
2022/01/23 08:18:41;;;;;;;20.77;13.33;;;4.20;99.90;;;4.41;72.81;99353.34;5087157;28;20044;-37
2022/01/23 08:21:10;;;;;;;27.57;15.73;;;4.20;99.90;;;4.45;72.07;99361.94;5085913;28;20339;-37
2022/01/23 08:23:38;;;;;;;35.10;18.40;;;4.20;99.90;;;4.47;72.26;99358.28;5085766;28;20187;-38
2022/01/23 08:26:07;;;;;;;32.00;17.53;;;4.20;99.90;;;4.47;72.44;99353.00;5085680;28;20347;-37
2022/01/23 08:28:35;;;;;;;26.53;15.33;;;4.20;99.90;;;4.50;72.32;99362.56;5087268;28;20082;-38
2022/01/23 08:31:03;;;;;;;27.63;16.40;;;4.20;99.90;;;4.52;72.39;99365.97;5086461;28;20064;-37
2022/01/23 08:33:31;;;;;;;23.37;14.67;;;4.30;99.90;;;4.53;71.52;99360.59;5086346;28;20048;-37
2022/01/23 08:35:59;;;;;;;31.83;16.80;;;4.30;99.90;;;4.56;72.06;99364.03;5086758;28;20055;-38
2022/01/23 08:38:27;;;;;;;26.03;15.63;;;4.30;99.90;;;4.58;71.93;99364.81;5085889;28;20232;-37
2022/01/23 08:43:49;;;;;;;27.00;16.40;;;4.40;99.90;;;4.58;72.06;99373.56;5057355;28;20066;-37
2022/01/23 08:46:18;;;;;;;31.10;16.80;;;4.40;99.90;;;4.59;71.81;99374.41;5068166;28;20400;-38
2022/01/23 08:48:46;;;;;;;29.47;18.10;;;4.30;99.90;;;4.61;72.42;99372.53;5085448;28;20048;-38
2022/01/23 08:51:14;;;;;;;26.30;15.83;;;4.40;99.90;;;4.65;72.18;99382.00;5082559;28;20089;-37
2022/01/23 08:53:43;;;;;;;26.57;15.97;;;4.40;99.90;;;4.69;71.85;99378.25;5087059;28;20040;-38
2022/01/23 08:56:11;;;;;;;25.90;15.40;;;4.50;99.90;;;4.69;72.27;99371.22;5085175;28;20052;-38
2022/01/23 08:58:39;;;;;;;30.07;18.10;;;4.50;99.90;;;4.70;71.53;99372.91;5086595;28;20628;-37
2022/01/23 09:01:07;;;;;;;26.90;17.03;;;4.50;99.90;;;4.70;71.88;99370.25;5083671;28;20370;-37
2022/01/23 09:03:35;;;;;;;25.33;15.70;;;4.50;99.90;;;4.73;71.88;99367.47;5085908;28;20234;-38
2022/01/23 09:06:05;;;;;;;35.17;20.77;;;4.50;99.90;;;4.75;72.70;99364.75;5085795;28;20667;-38
2022/01/23 09:08:36;;;;;;;25.17;15.20;;;4.50;99.90;;;4.76;72.44;99361.16;5085625;28;20131;-37
2022/01/23 09:11:10;;;;;;;24.63;15.00;;;4.60;99.90;;;4.78;71.70;99353.19;5081649;28;20054;-37
2022/01/23 09:16:07;;;;;;;22.70;13.43;;;4.50;99.90;;;4.79;72.11;99347.81;5085087;28;20048;-38
2022/01/23 09:18:35;;;;;;;21.43;12.90;;;4.50;99.90;;;4.79;71.99;99347.81;5084761;28;20238;-38
2022/01/23 09:21:03;;;;;;;23.07;12.90;;;4.50;99.90;;;4.72;72.01;99357.00;5083207;28;20261;-37
2022/01/23 09:23:32;;;;;;;25.30;13.77;;;4.40;99.90;;;4.67;71.28;99359.00;5084881;28;20246;-37
2022/01/23 09:26:09;;;;;;;24.27;14.07;;;4.40;99.90;;;4.70;71.37;99366.78;5087187;28;20051;-37
2022/01/23 09:28:39;;;;;;;24.70;14.57;;;4.40;99.90;;;4.70;71.98;99359.72;5086746;28;20358;-38
2022/01/23 09:31:07;;;;;;;29.80;16.30;;;4.50;99.90;;;4.76;72.38;99366.44;5086690;28;20052;-38
2022/01/23 09:33:38;;;;;;;23.67;12.97;;;4.50;99.90;;;4.79;72.48;99360.13;5085960;28;20374;-37
2022/01/23 09:36:06;;;;;;;24.97;14.37;;;4.60;99.90;;;4.78;71.80;99359.28;5084777;28;20063;-37
2022/01/23 09:38:33;;;;;;;24.00;14.53;;;4.60;99.90;;;4.80;71.48;99351.31;5086738;28;20074;-37
2022/01/23 09:41:03;;;;;;;30.20;15.70;;;4.60;99.90;;;4.84;72.02;99358.13;5086377;28;20048;-37
2022/01/23 09:43:32;;;;;;;23.63;14.53;;;4.60;99.90;;;4.84;71.56;99358.97;5085698;28;20056;-37
2022/01/23 09:46:05;;;;;;;24.20;14.00;;;4.60;99.90;;;4.89;72.12;99356.09;5051471;28;20044;-37
2022/01/23 09:48:35;;;;;;;27.43;15.50;;;4.70;99.90;;;4.92;72.01;99354.13;5068602;28;20062;-38
2022/01/23 09:51:04;;;;;;;25.73;15.33;;;4.70;99.90;;;4.84;71.86;99358.13;5085430;28;20048;-37
2022/01/23 09:53:32;;;;;;;26.33;15.07;;;4.60;99.90;;;4.82;71.92;99352.06;5086197;28;20054;-37
2022/01/23 09:56:06;;;;;;;26.47;16.00;;;4.60;99.90;;;4.85;72.02;99351.91;5070169;28;20038;-37
2022/01/23 09:58:37;;;;;;;26.23;14.82;;;4.60;99.90;;;4.91;72.24;99356.84;5068937;28;20056;-37
2022/01/23 10:01:05;;;;;;;24.70;15.20;;;4.70;99.90;;;4.99;71.86;99356.44;5068712;28;20058;-37
2022/01/23 10:03:33;;;;;;;22.47;14.33;;;4.80;99.90;;;5.06;72.18;99348.09;5084908;28;20067;-37
2022/01/23 10:06:02;;;;;;;22.57;14.60;;;4.90;99.90;;;5.14;72.18;99358.22;5068582;28;20055;-37
2022/01/23 10:08:31;;;;;;;29.43;17.77;;;5.00;99.90;;;5.21;71.67;99359.56;5087369;28;20054;-37
2022/01/23 10:10:59;;;;;;;24.07;15.47;;;5.10;99.90;;;5.26;72.18;99352.25;5065827;28;20048;-37
2022/01/23 10:13:27;;;;;;;30.70;16.87;;;5.20;99.90;;;5.32;71.24;99356.34;5068124;28;20048;-37
2022/01/23 10:15:55;;;;;;;26.87;16.33;;;5.20;99.90;;;5.38;71.39;99349.88;5087600;28;20044;-37
2022/01/23 10:18:23;;;;;;;32.63;18.80;;;5.30;99.90;;;5.41;72.04;99358.47;5089816;28;20051;-38
2022/01/23 10:20:51;;;;;;;26.20;16.17;;;5.30;99.90;;;5.45;71.78;99351.22;5071200;28;20070;-37
2022/01/23 10:23:20;;;;;;;24.63;15.47;;;5.40;99.90;;;5.49;72.15;99352.75;5087898;28;20241;-38
2022/01/23 10:25:49;;;;;;;25.57;14.40;;;5.40;99.90;;;5.51;71.69;99354.38;5090019;28;20056;-37
2022/01/23 10:28:21;;;;;;;27.43;14.57;;;5.40;99.90;;;5.52;71.09;99348.16;5089088;28;20426;-37
2022/01/23 10:31:00;;;;;;;27.73;14.23;;;5.40;99.90;;;5.56;71.39;99354.09;5089933;28;20058;-37
2022/01/23 10:33:33;;;;;;;24.23;15.47;;;5.40;99.90;;;5.60;71.23;99355.63;5087384;28;20044;-37
2022/01/23 10:36:21;;;;;;;27.07;16.97;;;5.50;99.90;;;5.62;71.75;99356.41;5088550;28;20354;-37
2022/01/23 10:39:02;;;;;;;23.80;14.43;;;5.50;99.90;;;5.67;71.70;99356.97;5088195;28;20241;-37
2022/01/23 10:41:46;;;;;;;25.43;15.40;;;5.50;99.90;;;5.71;71.07;99350.56;5090521;28;20056;-37
2022/01/23 10:50:08;;;;;;;24.97;15.90;;;5.70;99.90;;;5.81;71.40;99353.53;5088722;28;20052;-37
2022/01/23 10:52:47;;;;;;;28.57;16.60;;;5.70;99.90;;;5.84;71.36;99353.34;5088651;28;20062;-37
2022/01/23 10:55:31;;;;;;;29.30;18.33;;;5.70;99.90;;;5.87;70.95;99358.47;5089646;28;20334;-37
2022/01/23 10:58:03;;;;;;;26.98;16.02;;;5.80;99.90;;;5.91;71.06;99352.06;5088063;28;20052;-37
2022/01/23 11:00:38;;;;;;;26.70;16.33;;;5.80;99.90;;;5.95;71.67;99347.47;5088993;28;20059;-37
2022/01/23 11:03:23;;;;;;;28.00;15.30;;;5.90;99.90;;;5.95;70.93;99358.03;5089297;28;20058;-37
2022/01/23 11:05:53;;;;;;;25.07;16.60;;;5.90;99.90;;;6.01;71.38;99356.81;5090267;28;20398;-37
2022/01/23 11:08:30;;;;;;;25.27;15.07;;;5.90;99.90;;;6.04;70.88;99351.38;5089516;28;20050;-38
2022/01/23 11:11:08;;;;;;;23.57;14.63;;;5.90;99.90;;;6.07;71.35;99346.75;5088334;28;20048;-37
2022/01/23 11:19:40;;;;;;;20.70;12.63;;;5.90;99.90;;;6.06;70.95;99337.09;5088390;28;20058;-37
2022/01/23 11:22:21;;;;;;;19.50;13.07;;;5.90;99.90;;;6.08;70.79;99342.31;5088034;28;20071;-37
2022/01/23 11:24:50;;;;;;;20.70;13.60;;;5.90;99.90;;;6.11;70.92;99345.63;5088307;28;20064;-37
2022/01/23 11:27:21;;;;;;;26.40;13.33;;;6.00;99.90;;;6.15;70.99;99342.81;5088013;28;20062;-37
2022/01/23 11:30:08;;;;;;;22.37;13.80;;;6.00;99.90;;;6.19;70.93;99344.31;5088662;28;20052;-37
2022/01/23 11:32:39;;;;;;;20.67;12.47;;;6.10;99.90;;;6.21;70.43;99343.28;5088765;28;20326;-38
2022/01/23 11:35:15;;;;;;;20.63;13.10;;;6.10;99.90;;;6.26;70.18;99335.94;5087683;28;20040;-37
2022/01/23 11:37:51;;;;;;;20.17;12.40;;;6.10;99.90;;;6.29;70.19;99333.09;5070385;28;20044;-37
2022/01/23 11:40:34;;;;;;;19.53;11.67;;;6.20;99.90;;;6.34;70.13;99327.53;5088004;28;20068;-37
2022/01/23 11:54:42;;;;;;;31.25;19.95;;;6.30;99.90;;;6.42;69.95;99306.75;5073312;28;20044;-38
2022/01/23 11:57:44;;;;;;;26.53;15.07;;;6.30;99.90;;;6.44;69.71;99304.00;5088650;28;20064;-38
2022/01/23 12:00:23;;;;;;;19.70;12.33;;;6.30;99.90;;;6.46;69.84;99307.41;5086666;28;20060;-37
2022/01/23 12:03:18;;;;;;;18.07;12.37;;;6.40;99.90;;;6.48;69.12;99303.72;5087651;28;20364;-38
2022/01/23 12:05:49;;;;;;;17.83;12.00;;;6.40;99.90;;;6.49;68.99;99300.13;5068808;28;20059;-37
2022/01/23 12:08:32;;;;;;;16.20;12.07;;;6.40;99.90;;;6.52;69.53;99303.53;5085750;28;20242;-37
2022/01/23 12:11:38;;;;;;;18.13;11.67;;;6.40;99.90;;;6.54;69.16;99305.13;5086393;28;20051;-37
2022/01/23 12:16:21;;;;;;;20.27;11.53;;;6.40;99.90;;;6.56;69.34;99303.25;5086315;28;20420;-37
2022/01/23 12:17:38;;;;;;;22.73;13.40;;;6.50;99.90;;;6.56;68.83;99300.59;5086648;28;20247;-37
2022/01/23 12:20:08;;;;;;;30.43;16.83;;;6.50;99.90;;;6.56;68.44;99302.41;5085897;28;20373;-37
2022/01/23 12:22:41;;;;;;;24.60;15.00;;;6.40;99.90;;;6.56;68.48;99303.25;5085876;28;20056;-37
2022/01/23 12:25:22;;;;;;;18.52;12.18;;;6.40;99.90;;;6.60;68.89;99296.81;5087263;28;20051;-37
2022/01/23 12:28:14;;;;;;;17.00;10.40;;;6.50;99.90;;;6.63;68.49;99291.34;5086291;28;20061;-38
2022/01/23 12:30:45;;;;;;;15.00;9.50;;;6.60;99.90;;;6.66;68.44;99295.56;5106338;28;20234;-38
2022/01/23 12:33:20;;;;;;;15.30;10.00;;;6.60;99.90;;;6.68;68.25;99293.69;5106467;28;20316;-38
2022/01/23 12:35:55;;;;;;;15.33;10.13;;;6.60;99.90;;;6.69;68.53;99290.94;5105642;28;20219;-37
2022/01/23 12:38:38;;;;;;;18.40;11.03;;;6.60;99.90;;;6.69;67.80;99290.09;5104932;28;20047;-37
2022/01/23 12:41:30;;;;;;;18.70;11.50;;;6.50;99.90;;;6.69;67.94;99284.81;5106263;28;20055;-37
2022/01/23 12:44:08;;;;;;;19.33;11.57;;;6.60;99.90;;;6.70;67.70;99283.84;5105862;28;20062;-37
2022/01/23 12:46:49;;;;;;;18.43;11.53;;;6.60;99.90;;;6.68;68.16;99270.69;5107456;28;20039;-38
2022/01/23 12:49:47;;;;;;;17.60;10.57;;;6.60;99.90;;;6.68;67.61;99276.00;5105723;28;20229;-38
2022/01/23 12:52:22;;;;;;;15.13;9.03;;;6.60;99.90;;;6.68;67.75;99273.34;5106728;28;20056;-37
2022/01/23 12:55:00;;;;;;;9.57;6.03;;;6.50;99.90;;;6.67;67.37;99278.75;5105899;28;20050;-37
2022/01/23 12:57:38;;;;;;;13.20;7.33;;;6.50;99.90;;;6.66;66.93;99279.69;5106024;28;20370;-37
2022/01/23 13:00:24;;;;;;;9.47;5.67;;;6.50;99.90;;;6.65;66.62;99277.97;5105213;28;20062;-37
2022/01/23 13:02:53;;;;;;;7.23;4.87;;;6.40;99.90;;;6.63;66.52;99271.94;5106170;28;20044;-38
2022/01/23 13:05:21;;;;;;;8.63;5.67;;;6.40;99.90;;;6.60;66.20;99270.34;5106664;28;20227;-37
2022/01/23 13:10:30;;;;;;;9.30;6.03;;;6.40;98.30;;;6.59;65.47;99271.31;5106602;28;20054;-37
2022/01/23 13:32:33;;;;;;;29.40;13.10;;;6.40;91.30;;;6.63;65.32;99256.06;5077222;28;20056;-37
2022/01/23 13:35:11;;;;;;;16.73;9.13;;;6.50;90.80;;;6.64;65.31;99253.31;5075446;28;20353;-38
2022/01/23 13:37:43;;;;;;;12.70;7.93;;;6.50;90.80;;;6.66;65.22;99250.59;5074023;28;20224;-38
2022/01/23 13:40:24;;;;;;;11.83;7.63;;;6.60;90.50;;;6.67;65.10;99250.50;5072725;28;20052;-38
2022/01/23 14:02:32;;;;;;;6.30;3.30;;;7.10;79.70;;;7.06;62.31;99230.34;5077289;28;20056;-38
2022/01/23 14:05:17;;;;;;;4.83;3.33;;;7.10;78.20;;;7.05;61.81;99231.28;5079398;28;20052;-37
2022/01/23 14:07:54;;;;;;;5.33;3.07;;;7.10;74.70;;;6.99;61.57;99229.03;5079543;28;20420;-37
2022/01/23 14:10:38;;;;;;;7.93;5.63;;;7.00;76.60;;;6.98;61.41;99235.28;5076823;28;20044;-37
2022/01/23 14:13:15;;;;;;;9.75;5.80;;;6.90;76.00;;;6.97;61.78;99233.56;5076681;28;20371;-37
2022/01/23 14:15:47;;;;;;;7.37;5.03;;;6.90;76.20;;;6.97;61.41;99233.56;5076900;28;20048;-36
2022/01/23 14:18:30;;;;;;;5.37;3.30;;;6.80;76.20;;;6.96;61.56;99233.66;5079476;28;20049;-36
2022/01/23 14:21:09;;;;;;;14.50;7.30;;;6.80;74.30;;;6.95;61.25;99235.47;5057474;28;20251;-37
2022/01/23 14:23:37;;;;;;;8.00;4.30;;;6.80;75.40;;;6.94;61.26;99235.56;5061420;28;20052;-37
2022/01/23 14:26:10;;;;;;;6.10;4.47;;;6.70;76.40;;;6.90;60.85;99234.91;5076546;28;20051;-37
2022/01/23 14:28:47;;;;;;;6.38;4.63;;;6.70;75.10;;;6.87;61.38;99227.19;5075704;28;20062;-37
2022/01/23 14:31:22;;;;;;;9.67;6.53;;;6.70;75.80;;;6.86;61.42;99238.72;5077623;28;20373;-36